地図

経路データ

SID SEASON NUMBER BASIN SUBBASIN NAME ISO_TIME NATURE LAT LON WMO_WIND WMO_PRES WMO_AGENCY TRACK_TYPE DIST2LAND LANDFALL IFLAG USA_AGENCY USA_ATCF_ID USA_LAT USA_LON USA_RECORD USA_STATUS USA_WIND USA_PRES USA_SSHS USA_R34_NE USA_R34_SE USA_R34_SW USA_R34_NW USA_R50_NE USA_R50_SE USA_R50_SW USA_R50_NW USA_R64_NE USA_R64_SE USA_R64_SW USA_R64_NW USA_POCI USA_ROCI USA_RMW USA_EYE TOKYO_LAT TOKYO_LON TOKYO_GRADE TOKYO_WIND TOKYO_PRES TOKYO_R50_DIR TOKYO_R50_LONG TOKYO_R50_SHORT TOKYO_R30_DIR TOKYO_R30_LONG TOKYO_R30_SHORT TOKYO_LAND CMA_LAT CMA_LON CMA_CAT CMA_WIND CMA_PRES HKO_LAT HKO_LON HKO_CAT HKO_WIND HKO_PRES NEWDELHI_LAT NEWDELHI_LON NEWDELHI_GRADE NEWDELHI_WIND NEWDELHI_PRES NEWDELHI_CI NEWDELHI_DP NEWDELHI_POCI REUNION_LAT REUNION_LON REUNION_TYPE REUNION_WIND REUNION_PRES REUNION_TNUM REUNION_CI REUNION_RMW REUNION_R34_NE REUNION_R34_SE REUNION_R34_SW REUNION_R34_NW REUNION_R50_NE REUNION_R50_SE REUNION_R50_SW REUNION_R50_NW REUNION_R64_NE REUNION_R64_SE REUNION_R64_SW REUNION_R64_NW BOM_LAT BOM_LON BOM_TYPE BOM_WIND BOM_PRES BOM_TNUM BOM_CI BOM_RMW BOM_R34_NE BOM_R34_SE BOM_R34_SW BOM_R34_NW BOM_R50_NE BOM_R50_SE BOM_R50_SW BOM_R50_NW BOM_R64_NE BOM_R64_SE BOM_R64_SW BOM_R64_NW BOM_ROCI BOM_POCI BOM_EYE BOM_POS_METHOD BOM_PRES_METHOD NADI_LAT NADI_LON NADI_CAT NADI_WIND NADI_PRES WELLINGTON_LAT WELLINGTON_LON WELLINGTON_WIND WELLINGTON_PRES DS824_LAT DS824_LON DS824_STAGE DS824_WIND DS824_PRES TD9636_LAT TD9636_LON TD9636_STAGE TD9636_WIND TD9636_PRES TD9635_LAT TD9635_LON TD9635_WIND TD9635_PRES TD9635_ROCI NEUMANN_LAT NEUMANN_LON NEUMANN_CLASS NEUMANN_WIND NEUMANN_PRES MLC_LAT MLC_LON MLC_CLASS MLC_WIND MLC_PRES USA_GUST BOM_GUST BOM_GUST_PER REUNION_GUST REUNION_GUST_PER USA_SEAHGT USA_SEARAD_NE USA_SEARAD_SE USA_SEARAD_SW USA_SEARAD_NW STORM_SPEED STORM_DIR
1882043S16078 1882 9 SI MM NOT_NAMED 1882-02-12 00:00:00 TS -16.3000 77.7000 main 2146 2071 _________O____ -1 -16.3000 77.7000 TC 14 259
1882043S16078 1882 9 SI MM NOT_NAMED 1882-02-12 03:00:00 TS -16.4305 76.9901 main 2071 1993 _________P____ -1 -16.4305 76.9901 TC 14 257
1882043S16078 1882 9 SI MM NOT_NAMED 1882-02-12 06:00:00 TS -16.6000 76.3000 main 1993 1926 _________O____ -1 -16.6000 76.3000 TC 14 253
1882043S16078 1882 9 SI MM NOT_NAMED 1882-02-12 09:00:00 TS -16.8347 75.6425 main 1915 1845 _________P____ -1 -16.8347 75.6425 TC 13 248
1882043S16078 1882 9 SI MM NOT_NAMED 1882-02-12 12:00:00 TS -17.1000 75.0000 main 1845 1778 _________O____ -1 -17.1000 75.0000 TC 13 248
1882043S16078 1882 9 SI MM NOT_NAMED 1882-02-12 15:00:00 TS -17.3349 74.3347 main 1768 1698 _________P____ -1 -17.3349 74.3347 TC 13 248
1882043S16078 1882 9 SI MM NOT_NAMED 1882-02-12 18:00:00 TS -17.6000 73.7000 main 1698 1629 _________O____ -1 -17.6000 73.7000 TC 14 242
1882043S16078 1882 9 SI MM NOT_NAMED 1882-02-12 21:00:00 TS -17.9651 73.0754 main 1626 1568 _________P____ -1 -17.9651 73.0754 TC 13 236
1882043S16078 1882 9 SI MM NOT_NAMED 1882-02-13 00:00:00 TS -18.3000 72.6000 main 1568 1543 _________O____ -1 -18.3000 72.6000 TC 8 232
1882043S16078 1882 9 SI MM NOT_NAMED 1882-02-13 03:00:00 TS -18.4722 72.3896 main 1543 1531 _________P____ -1 -18.4722 72.3896 TC 4 223
1882043S16078 1882 9 SI MM NOT_NAMED 1882-02-13 06:00:00 TS -18.6000 72.3000 main 1531 1517 _________O____ -1 -18.6000 72.3000 TC 4 215
1882043S16078 1882 9 SI MM NOT_NAMED 1882-02-13 09:00:00 TS -18.7850 72.1574 main 1517 1493 _________P____ -1 -18.7850 72.1574 TC 5 215
1882043S16078 1882 9 SI MM NOT_NAMED 1882-02-13 12:00:00 TS -19.0000 72.0000 main 1493 1469 _________O____ -1 -19.0000 72.0000 TC 6 217
1882043S16078 1882 9 SI MM NOT_NAMED 1882-02-13 15:00:00 TS -19.2425 71.8000 main 1469 1445 _________P____ -1 -19.2425 71.8000 TC 6 217
1882043S16078 1882 9 SI MM NOT_NAMED 1882-02-13 18:00:00 TS -19.5000 71.6000 main 1445 1422 _________O____ -1 -19.5000 71.6000 TC 6 216
1882043S16078 1882 9 SI MM NOT_NAMED 1882-02-13 21:00:00 TS -19.7125 71.4349 main 1422 1409 _________P____ -1 -19.7125 71.4349 TC 6 210
1882043S16078 1882 9 SI MM NOT_NAMED 1882-02-14 00:00:00 TS -20.0000 71.3000 main 1409 1396 _________O____ -1 -20.0000 71.3000 TC 8 199
1882043S16078 1882 9 SI MM NOT_NAMED 1882-02-14 03:00:00 TS -20.4625 71.1628 main 1396 1385 _________P____ -1 -20.4625 71.1628 TC 10 191
1882043S16078 1882 9 SI MM NOT_NAMED 1882-02-14 06:00:00 TS -21.0000 71.1000 main 1385 1385 _________O____ -1 -21.0000 71.1000 TC 11 179
1882043S16078 1882 9 SI MM NOT_NAMED 1882-02-14 09:00:00 TS -21.5075 71.1698 main 1397 1397 _________P____ -1 -21.5075 71.1698 TC 10 169
1882043S16078 1882 9 SI MM NOT_NAMED 1882-02-14 12:00:00 TS -22.0000 71.3000 main 1412 1412 _________O____ -1 -22.0000 71.3000 TC 10 167
1882043S16078 1882 9 SI MM NOT_NAMED 1882-02-14 15:00:00 TS -22.4650 71.4001 main 1428 1428 _________P____ -1 -22.4650 71.4001 TC 9 168
1882043S16078 1882 9 SI MM NOT_NAMED 1882-02-14 18:00:00 TS -22.9000 71.5000 main 1444 1444 _________O____ -1 -22.9000 71.5000 TC 9 168
1882043S16078 1882 9 SI MM NOT_NAMED 1882-02-14 21:00:00 TS -23.3075 71.5999 main 1462 1462 _________P____ -1 -23.3075 71.5999 TC 8 167
1882043S16078 1882 9 SI MM NOT_NAMED 1882-02-15 00:00:00 TS -23.7000 71.7000 main 1481 _________O____ -1 -23.7000 71.7000 TC 8 168

IBTrACS Databaseについて

本データベースは、米国NOAAが公開する1842年以降の世界の熱帯低気圧のベストトラックデータアーカイブInternational Best Track Archive for Climate Stewardship (IBTrACS)を、ウェブで閲覧しやすい形式に変換したものです。

最終更新日:2021-12-06